createdAt,value
2018-07-31T00:00:47.089Z,53.69
2018-07-31T00:03:16.815Z,53.14
2018-07-31T00:05:46.214Z,52.99
2018-07-31T00:08:15.556Z,53.32
2018-07-31T00:10:45.658Z,53.83
2018-07-31T00:13:15.308Z,54.42
2018-07-31T00:15:45.543Z,54.41
2018-07-31T00:18:14.900Z,55.42
2018-07-31T00:20:44.255Z,55.11
2018-07-31T00:23:13.635Z,55.10
2018-07-31T00:25:42.959Z,54.47
2018-07-31T00:28:12.284Z,54.71
2018-07-31T00:30:41.652Z,54.89
2018-07-31T00:33:11.012Z,55.01
2018-07-31T00:35:40.313Z,54.85
2018-07-31T00:38:10.512Z,55.09
2018-07-31T00:40:39.812Z,54.45
2018-07-31T00:43:09.475Z,54.32
2018-07-31T00:45:39.300Z,54.86
2018-07-31T00:48:08.893Z,55.30
2018-07-31T00:50:38.191Z,54.49
2018-07-31T00:53:10.318Z,54.76
2018-07-31T00:55:39.675Z,54.40
2018-07-31T00:58:09.055Z,54.22
2018-07-31T01:00:38.683Z,54.80
2018-07-31T01:03:08.353Z,54.42
2018-07-31T01:05:38.103Z,54.88
2018-07-31T01:08:07.843Z,55.32
2018-07-31T01:10:37.384Z,55.74
2018-07-31T01:13:06.912Z,56.36
2018-07-31T01:15:36.211Z,56.04
2018-07-31T01:18:05.562Z,56.84
2018-07-31T01:20:35.203Z,56.81
2018-07-31T01:23:04.570Z,56.53
2018-07-31T01:25:34.239Z,57.95
2018-07-31T01:28:03.562Z,57.23
2018-07-31T01:30:32.926Z,58.00
2018-07-31T01:33:03.166Z,58.01
2018-07-31T01:35:32.784Z,58.98
2018-07-31T01:38:02.230Z,59.19
2018-07-31T01:40:31.850Z,58.95
2018-07-31T01:43:01.699Z,59.37
2018-07-31T01:45:31.794Z,59.54
2018-07-31T01:48:01.119Z,59.15
2018-07-31T01:50:30.701Z,59.50
2018-07-31T01:53:00.011Z,59.69
2018-07-31T01:55:29.973Z,59.75
2018-07-31T01:57:59.295Z,59.12
2018-07-31T02:00:28.609Z,59.48
2018-07-31T02:02:57.967Z,59.66
2018-07-31T02:05:28.433Z,60.02
2018-07-31T02:07:57.842Z,60.05
2018-07-31T02:10:27.248Z,59.55
2018-07-31T02:12:56.888Z,59.84
2018-07-31T02:15:26.188Z,59.60
2018-07-31T02:17:55.524Z,59.80
2018-07-31T02:20:24.944Z,60.08
2018-07-31T02:22:55.268Z,60.69
2018-07-31T02:25:24.585Z,60.56
2018-07-31T02:27:54.218Z,60.67
2018-07-31T02:30:24.340Z,60.79
2018-07-31T02:32:53.673Z,60.96
2018-07-31T02:35:23.053Z,60.72
2018-07-31T02:37:52.351Z,60.06
2018-07-31T02:40:21.957Z,59.68
2018-07-31T02:42:51.307Z,59.77
2018-07-31T02:45:21.313Z,60.14
2018-07-31T02:47:50.599Z,60.31
2018-07-31T02:50:19.956Z,60.38
2018-07-31T02:52:49.264Z,60.74
2018-07-31T02:55:19.020Z,61.11
2018-07-31T02:57:48.664Z,61.08
2018-07-31T03:00:18.652Z,61.42
2018-07-31T03:02:47.992Z,61.14
2018-07-31T03:05:17.334Z,61.98
2018-07-31T03:07:46.635Z,62.26
2018-07-31T03:10:16.000Z,61.96
2018-07-31T03:12:45.331Z,62.60
2018-07-31T03:15:14.679Z,62.03
2018-07-31T03:17:44.623Z,62.63
2018-07-31T03:20:14.251Z,62.58
2018-07-31T03:22:43.556Z,62.26
2018-07-31T03:25:13.251Z,62.09
2018-07-31T03:27:42.793Z,61.65
2018-07-31T03:30:12.140Z,61.38
2018-07-31T03:32:41.447Z,61.65
2018-07-31T03:35:10.803Z,61.54
2018-07-31T03:37:40.132Z,61.42
2018-07-31T03:40:10.177Z,62.41
2018-07-31T03:42:39.485Z,62.81
2018-07-31T03:45:09.186Z,63.39
2018-07-31T03:47:38.479Z,64.14
2018-07-31T03:50:08.149Z,63.95
2018-07-31T03:52:37.457Z,64.55
2018-07-31T03:55:07.139Z,64.19
2018-07-31T03:57:36.447Z,64.67
2018-07-31T04:00:07.312Z,64.30
2018-07-31T04:02:36.643Z,64.90
2018-07-31T04:05:06.313Z,65.11
2018-07-31T04:07:35.982Z,65.00
2018-07-31T04:10:05.877Z,65.22
2018-07-31T04:12:35.269Z,64.80
2018-07-31T04:15:04.882Z,64.70
2018-07-31T04:17:34.212Z,64.70
2018-07-31T04:20:04.827Z,64.18
2018-07-31T04:22:34.263Z,64.28
2018-07-31T04:25:03.663Z,65.36
2018-07-31T04:27:33.315Z,65.44
2018-07-31T04:30:02.683Z,65.30
2018-07-31T04:32:32.733Z,64.85
2018-07-31T04:35:02.509Z,64.72
2018-07-31T04:37:31.827Z,64.51
2018-07-31T04:40:01.181Z,64.56
2018-07-31T04:42:30.532Z,64.52
2018-07-31T04:44:59.836Z,64.97
2018-07-31T04:47:29.150Z,64.85
2018-07-31T04:49:58.517Z,64.70
2018-07-31T04:52:28.096Z,64.50
2018-07-31T04:54:57.439Z,64.60
2018-07-31T04:57:26.788Z,63.73
2018-07-31T04:59:56.442Z,63.78
2018-07-31T05:02:26.086Z,62.98
2018-07-31T05:04:55.694Z,63.60
2018-07-31T05:07:25.296Z,62.68
2018-07-31T05:09:54.660Z,62.13
2018-07-31T05:12:24.223Z,62.04
2018-07-31T05:14:53.780Z,62.30
2018-07-31T05:17:23.093Z,62.71
2018-07-31T05:19:52.441Z,62.31
2018-07-31T05:22:21.781Z,62.09
2018-07-31T05:24:51.431Z,61.88
2018-07-31T05:27:20.968Z,61.77
2018-07-31T05:29:50.314Z,61.44
2018-07-31T05:32:19.647Z,62.04
2018-07-31T05:34:49.456Z,61.52
2018-07-31T05:37:19.104Z,61.26
2018-07-31T05:39:48.762Z,61.96
2018-07-31T05:42:18.520Z,62.27
2018-07-31T05:44:48.196Z,62.01
2018-07-31T05:47:17.836Z,62.16
2018-07-31T05:49:47.454Z,62.64
2018-07-31T05:52:17.390Z,62.03
2018-07-31T05:54:46.744Z,61.84
2018-07-31T05:57:17.118Z,61.39
2018-07-31T05:59:46.477Z,61.35
2018-07-31T06:02:16.531Z,61.92
2018-07-31T06:04:45.867Z,60.56
2018-07-31T06:07:15.237Z,60.54
2018-07-31T06:09:44.587Z,60.01
2018-07-31T06:12:13.962Z,60.55
2018-07-31T06:14:43.697Z,59.56
2018-07-31T06:17:13.020Z,59.41
2018-07-31T06:19:43.415Z,59.33
2018-07-31T06:22:12.780Z,58.54
2018-07-31T06:24:42.127Z,58.22
2018-07-31T06:27:12.106Z,57.98
2018-07-31T06:29:41.692Z,58.14
2018-07-31T06:32:11.040Z,56.97
2018-07-31T06:34:40.449Z,57.04
2018-07-31T06:37:10.048Z,56.55
2018-07-31T06:39:39.444Z,57.04
2018-07-31T06:42:09.527Z,56.10
2018-07-31T06:44:39.298Z,56.69
2018-07-31T06:47:08.907Z,55.76
2018-07-31T06:49:38.343Z,55.18
2018-07-31T06:52:08.400Z,53.99
2018-07-31T06:54:37.726Z,54.19
2018-07-31T06:57:07.120Z,54.28
2018-07-31T06:59:36.820Z,53.54
2018-07-31T07:02:06.751Z,53.33
2018-07-31T07:04:36.495Z,52.92
2018-07-31T07:07:05.835Z,52.04
2018-07-31T07:09:35.160Z,51.02
2018-07-31T07:12:04.570Z,50.75
2018-07-31T07:14:33.886Z,50.90
2018-07-31T07:17:03.582Z,50.49
2018-07-31T07:19:33.495Z,49.88
2018-07-31T07:22:02.851Z,49.63
2018-07-31T07:24:32.458Z,49.91
2018-07-31T07:27:02.500Z,49.15
2018-07-31T07:29:32.020Z,49.29
2018-07-31T07:32:01.359Z,47.93
2018-07-31T07:34:31.983Z,47.41
2018-07-31T07:37:01.367Z,46.93
2018-07-31T07:39:31.083Z,46.35
2018-07-31T07:42:00.424Z,45.57
2018-07-31T07:44:29.999Z,46.19
2018-07-31T07:46:59.360Z,45.77
2018-07-31T07:49:29.602Z,44.41
2018-07-31T07:51:58.960Z,44.23
2018-07-31T07:54:28.267Z,43.76
2018-07-31T07:56:58.014Z,42.85
2018-07-31T07:59:27.350Z,42.74
2018-07-31T08:01:56.751Z,41.92
2018-07-31T08:04:26.100Z,42.15
2018-07-31T08:06:55.468Z,42.24
2018-07-31T08:09:24.821Z,42.19
2018-07-31T08:11:54.181Z,41.58
2018-07-31T08:14:23.508Z,41.78
2018-07-31T08:16:52.892Z,41.22
2018-07-31T08:19:22.266Z,41.10
2018-07-31T08:21:51.908Z,40.44
2018-07-31T08:24:21.263Z,39.74
2018-07-31T08:26:51.647Z,40.24
2018-07-31T08:29:20.985Z,39.36
2018-07-31T08:31:50.681Z,39.36
2018-07-31T08:34:20.006Z,38.76
2018-07-31T08:36:49.829Z,38.12
2018-07-31T08:39:19.152Z,38.46
2018-07-31T08:41:48.502Z,37.38
2018-07-31T08:44:17.820Z,37.24
2018-07-31T08:46:47.739Z,37.49
2018-07-31T08:49:17.974Z,36.86
2018-07-31T08:51:47.324Z,35.99
2018-07-31T08:54:16.958Z,34.89
2018-07-31T08:56:46.348Z,36.00
2018-07-31T08:59:16.391Z,35.46
2018-07-31T09:01:46.787Z,35.40
2018-07-31T09:04:17.079Z,34.40
2018-07-31T09:06:46.419Z,33.97
2018-07-31T09:09:15.766Z,34.50
2018-07-31T09:11:45.544Z,33.74
2018-07-31T09:14:14.882Z,32.98
2018-07-31T09:16:44.531Z,32.29
2018-07-31T09:19:13.955Z,31.71
2018-07-31T09:21:43.633Z,32.46
2018-07-31T09:24:13.585Z,32.13
2018-07-31T09:26:42.872Z,30.61
2018-07-31T09:29:12.511Z,31.21
2018-07-31T09:31:42.533Z,30.70
2018-07-31T09:34:12.464Z,32.16
2018-07-31T09:36:41.789Z,30.39
2018-07-31T09:39:12.355Z,31.24
2018-07-31T09:41:41.670Z,30.04
2018-07-31T09:44:11.688Z,30.93
2018-07-31T09:46:40.981Z,30.90
2018-07-31T09:49:10.320Z,30.70
2018-07-31T09:51:40.242Z,30.87
2018-07-31T09:54:09.564Z,31.29
2018-07-31T09:56:38.896Z,30.34
2018-07-31T09:59:08.485Z,29.57
2018-07-31T10:01:38.075Z,29.71
2018-07-31T10:04:07.742Z,28.44
2018-07-31T10:06:37.068Z,28.97
2018-07-31T10:09:08.817Z,29.11
2018-07-31T10:11:38.181Z,28.42
2018-07-31T10:14:08.060Z,28.24
2018-07-31T10:16:37.336Z,26.69
2018-07-31T10:19:06.676Z,26.68
2018-07-31T10:21:35.975Z,27.31
2018-07-31T10:24:05.468Z,27.38
2018-07-31T10:26:34.751Z,26.99
2018-07-31T10:29:04.168Z,26.90
2018-07-31T10:31:33.876Z,26.53
2018-07-31T10:34:03.443Z,26.87
2018-07-31T10:36:33.751Z,25.49
2018-07-31T10:39:03.202Z,25.54
2018-07-31T10:41:33.434Z,24.99
2018-07-31T10:44:02.861Z,24.29
2018-07-31T10:46:32.628Z,23.99
2018-07-31T10:49:02.275Z,23.37
2018-07-31T10:51:31.573Z,23.67
2018-07-31T10:54:00.916Z,22.90
2018-07-31T10:56:30.722Z,24.29
2018-07-31T10:59:03.144Z,23.70
2018-07-31T11:01:32.411Z,22.99
2018-07-31T11:04:02.305Z,22.93
2018-07-31T11:06:31.632Z,24.24
2018-07-31T11:09:00.912Z,23.42
2018-07-31T11:11:30.249Z,23.98
2018-07-31T11:13:59.551Z,23.86
2018-07-31T11:16:28.876Z,24.73
2018-07-31T11:18:58.200Z,23.92
2018-07-31T11:21:27.502Z,22.84
2018-07-31T11:23:56.849Z,23.44
2018-07-31T11:26:26.384Z,22.70
2018-07-31T11:28:56.046Z,22.32
2018-07-31T11:31:25.359Z,21.83
2018-07-31T11:33:54.980Z,22.20
2018-07-31T11:36:24.280Z,22.13
2018-07-31T11:38:54.611Z,22.21
2018-07-31T11:41:23.908Z,23.10
2018-07-31T11:43:53.350Z,22.21
2018-07-31T11:46:23.231Z,21.45
2018-07-31T11:48:52.768Z,21.90
2018-07-31T11:51:22.168Z,21.51
2018-07-31T11:53:51.489Z,21.29
2018-07-31T11:56:20.771Z,21.42
2018-07-31T11:58:50.117Z,21.77
2018-07-31T12:01:19.502Z,21.86
2018-07-31T12:03:49.221Z,21.85
2018-07-31T12:06:18.597Z,21.92
2018-07-31T12:08:48.786Z,21.47
2018-07-31T12:11:18.110Z,22.13
2018-07-31T12:13:47.861Z,22.33
2018-07-31T12:16:17.127Z,23.13
2018-07-31T12:18:46.484Z,23.03
2018-07-31T12:21:15.784Z,23.58
2018-07-31T12:23:45.143Z,23.52
2018-07-31T12:26:14.832Z,23.67
2018-07-31T12:28:44.169Z,23.25
2018-07-31T12:31:13.497Z,23.10
2018-07-31T12:33:42.819Z,23.38
2018-07-31T12:36:12.517Z,22.97
2018-07-31T12:38:42.471Z,23.16
2018-07-31T12:41:12.145Z,23.58
2018-07-31T12:43:41.880Z,23.25
2018-07-31T12:46:11.217Z,24.49
2018-07-31T12:48:40.657Z,24.13
2018-07-31T12:51:10.189Z,23.90
2018-07-31T12:53:39.919Z,23.85
2018-07-31T12:56:09.280Z,24.04
2018-07-31T12:58:38.589Z,23.46
2018-07-31T13:01:08.283Z,23.68
2018-07-31T13:03:37.624Z,23.92
2018-07-31T13:06:07.540Z,23.64
2018-07-31T13:08:36.835Z,22.53
2018-07-31T13:11:06.151Z,22.76
2018-07-31T13:13:35.462Z,22.31
2018-07-31T13:16:05.000Z,22.23
2018-07-31T13:18:34.336Z,23.10
2018-07-31T13:21:03.694Z,22.66
2018-07-31T13:23:33.503Z,22.85
2018-07-31T13:26:02.824Z,22.48
2018-07-31T13:28:32.984Z,23.78
2018-07-31T13:31:02.310Z,23.85
2018-07-31T13:33:31.615Z,23.04
2018-07-31T13:36:01.164Z,24.09
2018-07-31T13:38:31.218Z,23.51
2018-07-31T13:41:00.567Z,23.69
2018-07-31T13:43:30.246Z,23.83
2018-07-31T13:45:59.618Z,24.31
2018-07-31T13:48:28.942Z,24.12
2018-07-31T13:50:59.408Z,24.64
2018-07-31T13:53:29.017Z,25.03
2018-07-31T13:55:58.658Z,25.11
2018-07-31T13:58:27.979Z,25.56
2018-07-31T14:00:57.661Z,25.71
2018-07-31T14:03:27.005Z,25.62
2018-07-31T14:05:56.432Z,24.97
2018-07-31T14:08:25.770Z,24.27
2018-07-31T14:10:55.140Z,24.33
2018-07-31T14:13:24.785Z,23.68
2018-07-31T14:15:54.362Z,24.45
2018-07-31T14:18:23.701Z,24.86
2018-07-31T14:20:53.067Z,24.88
2018-07-31T14:23:22.973Z,25.34
2018-07-31T14:25:53.258Z,25.06
2018-07-31T14:28:23.428Z,24.23
2018-07-31T14:30:53.207Z,23.91
2018-07-31T14:33:23.572Z,23.56
2018-07-31T14:35:52.928Z,22.86
2018-07-31T14:38:22.241Z,22.87
2018-07-31T14:40:51.958Z,22.74
2018-07-31T14:43:21.676Z,23.16
2018-07-31T14:45:51.678Z,23.10
2018-07-31T14:48:21.049Z,23.05
2018-07-31T14:50:50.684Z,22.85
2018-07-31T14:53:19.976Z,22.91
2018-07-31T14:55:50.500Z,23.15
2018-07-31T14:58:19.812Z,23.39
2018-07-31T15:00:49.159Z,22.80
2018-07-31T15:03:19.007Z,22.91
2018-07-31T15:05:48.932Z,23.64
2018-07-31T15:08:18.257Z,23.72
2018-07-31T15:10:47.599Z,24.29
2018-07-31T15:13:16.919Z,23.81
2018-07-31T15:15:46.229Z,23.07
2018-07-31T15:18:16.562Z,23.01
2018-07-31T15:20:45.883Z,23.29
2018-07-31T15:23:15.180Z,23.60
2018-07-31T15:25:44.536Z,23.24
2018-07-31T15:28:13.860Z,24.40
2018-07-31T15:30:43.447Z,26.73
2018-07-31T15:33:12.789Z,28.53
2018-07-31T15:35:42.195Z,31.72
2018-07-31T15:38:11.742Z,35.45
2018-07-31T15:40:41.105Z,36.19
2018-07-31T15:43:10.468Z,37.15
2018-07-31T15:45:39.784Z,38.31
2018-07-31T15:48:09.175Z,37.18
2018-07-31T15:50:38.485Z,36.02
2018-07-31T15:53:08.237Z,35.51
2018-07-31T15:55:37.986Z,33.37
2018-07-31T15:58:07.844Z,30.99
2018-07-31T16:00:37.566Z,30.44
2018-07-31T16:03:07.246Z,30.55
2018-07-31T16:05:36.920Z,30.49
2018-07-31T16:08:06.317Z,31.12
2018-07-31T16:10:36.355Z,31.89
2018-07-31T16:13:06.532Z,32.48
2018-07-31T16:15:36.705Z,32.24
2018-07-31T16:18:06.352Z,32.34
2018-07-31T16:20:36.701Z,32.18
2018-07-31T16:23:06.291Z,31.92
2018-07-31T16:25:35.530Z,31.37
2018-07-31T16:28:04.861Z,32.29
2018-07-31T16:30:34.567Z,31.93
2018-07-31T16:33:03.928Z,31.13
2018-07-31T16:35:33.292Z,30.13
2018-07-31T16:38:02.604Z,29.82
2018-07-31T16:40:32.323Z,29.36
2018-07-31T16:43:01.688Z,29.71
2018-07-31T16:45:31.033Z,30.22
2018-07-31T16:48:00.363Z,30.41
2018-07-31T16:50:30.091Z,30.00
2018-07-31T16:53:00.165Z,30.35
2018-07-31T16:55:29.485Z,28.69
2018-07-31T16:57:59.252Z,28.41
2018-07-31T17:00:28.563Z,27.02
2018-07-31T17:02:58.198Z,26.81
2018-07-31T17:05:28.740Z,26.37
2018-07-31T17:07:58.068Z,24.77
2018-07-31T17:10:27.415Z,25.81
2018-07-31T17:12:56.787Z,26.32
2018-07-31T17:15:26.157Z,26.71
2018-07-31T17:17:55.495Z,27.45
2018-07-31T17:20:24.806Z,26.76
2018-07-31T17:22:54.166Z,25.67
2018-07-31T17:25:23.474Z,24.97
2018-07-31T17:27:52.787Z,24.32
2018-07-31T17:30:22.530Z,24.10
2018-07-31T17:32:51.879Z,25.08
2018-07-31T17:35:21.239Z,25.08
2018-07-31T17:37:51.607Z,25.38
2018-07-31T17:40:21.157Z,25.51
2018-07-31T17:42:50.462Z,26.84
2018-07-31T17:45:20.489Z,27.30
2018-07-31T17:47:49.839Z,27.44
2018-07-31T17:50:19.368Z,28.16
2018-07-31T17:52:48.762Z,27.90
2018-07-31T17:55:19.196Z,26.40
2018-07-31T17:57:48.831Z,26.58
2018-07-31T18:00:19.457Z,27.01
2018-07-31T18:02:49.632Z,27.37
2018-07-31T18:05:18.953Z,26.36
2018-07-31T18:07:48.532Z,25.29
2018-07-31T18:10:19.099Z,26.73
2018-07-31T18:12:48.433Z,27.72
2018-07-31T18:15:17.720Z,28.55
2018-07-31T18:17:47.845Z,28.43
2018-07-31T18:20:17.215Z,27.30
2018-07-31T18:22:46.915Z,30.13
2018-07-31T18:25:16.290Z,31.68
2018-07-31T18:27:45.623Z,31.79
2018-07-31T18:30:16.236Z,31.85
2018-07-31T18:32:45.894Z,31.43
2018-07-31T18:35:15.240Z,30.49
2018-07-31T18:37:44.833Z,29.78
2018-07-31T18:40:14.583Z,30.30
2018-07-31T18:42:44.333Z,29.49
2018-07-31T18:45:14.675Z,30.36
2018-07-31T18:47:43.998Z,30.54
2018-07-31T18:50:13.995Z,30.35
2018-07-31T18:52:43.390Z,30.64
2018-07-31T18:55:13.191Z,31.09
2018-07-31T18:57:42.837Z,31.39
2018-07-31T19:00:12.299Z,31.15
2018-07-31T19:02:41.945Z,30.69
2018-07-31T19:05:11.349Z,31.01
2018-07-31T19:07:40.683Z,31.05
2018-07-31T19:10:10.409Z,32.54
2018-07-31T19:12:40.893Z,33.13
2018-07-31T19:15:10.206Z,33.54
2018-07-31T19:17:39.563Z,33.54
2018-07-31T19:20:08.994Z,34.42
2018-07-31T19:22:38.856Z,34.29
2018-07-31T19:25:08.440Z,34.74
2018-07-31T19:27:37.841Z,34.42
2018-07-31T19:30:07.909Z,33.91
2018-07-31T19:32:37.515Z,34.06
2018-07-31T19:35:07.439Z,34.21
2018-07-31T19:37:36.776Z,34.56
2018-07-31T19:40:06.700Z,34.35
2018-07-31T19:42:36.370Z,34.60
2018-07-31T19:45:06.620Z,35.13
2018-07-31T19:47:36.274Z,36.32
2018-07-31T19:50:05.709Z,36.81
2018-07-31T19:52:35.477Z,37.76
2018-07-31T19:55:06.201Z,37.73
2018-07-31T19:57:35.939Z,38.47
2018-07-31T20:00:05.913Z,37.83
2018-07-31T20:02:35.355Z,38.95
2018-07-31T20:05:05.606Z,38.58
2018-07-31T20:07:35.227Z,39.23
2018-07-31T20:10:04.967Z,39.46
2018-07-31T20:12:34.334Z,38.27
2018-07-31T20:15:03.848Z,38.33
2018-07-31T20:17:33.963Z,38.49
2018-07-31T20:20:04.657Z,38.00
2018-07-31T20:22:34.068Z,38.25
2018-07-31T20:25:03.531Z,38.45
2018-07-31T20:27:35.237Z,38.00
2018-07-31T20:30:05.875Z,38.52
2018-07-31T20:32:35.816Z,38.36
2018-07-31T20:35:06.095Z,39.04
2018-07-31T20:37:35.903Z,38.90
2018-07-31T20:40:06.020Z,38.21
2018-07-31T20:42:36.718Z,39.22
2018-07-31T20:45:06.191Z,39.64
2018-07-31T20:47:35.568Z,40.46
2018-07-31T20:50:05.829Z,39.76
2018-07-31T20:52:36.624Z,40.28
2018-07-31T20:55:06.106Z,40.28
2018-07-31T20:57:35.495Z,40.60
2018-07-31T21:00:06.446Z,40.97
2018-07-31T21:02:35.968Z,40.85
2018-07-31T21:05:05.556Z,40.67
2018-07-31T21:07:35.202Z,41.00
2018-07-31T21:10:05.656Z,41.11
2018-07-31T21:12:36.352Z,41.18
2018-07-31T21:15:07.544Z,41.46
2018-07-31T21:17:38.222Z,41.37
2018-07-31T21:20:07.883Z,41.86
2018-07-31T21:22:37.238Z,42.25
2018-07-31T21:25:07.099Z,42.79
2018-07-31T21:27:36.936Z,42.73
2018-07-31T21:30:07.097Z,43.09
2018-07-31T21:32:37.097Z,44.08
2018-07-31T21:35:07.147Z,43.89
2018-07-31T21:37:36.527Z,43.35
2018-07-31T21:40:05.953Z,44.34
2018-07-31T21:42:35.315Z,43.90
2018-07-31T21:45:05.010Z,44.28
2018-07-31T21:47:34.603Z,43.98
2018-07-31T21:50:04.088Z,43.68
2018-07-31T21:52:35.777Z,44.28
2018-07-31T21:55:05.514Z,43.58
2018-07-31T21:57:35.420Z,43.63
2018-07-31T22:00:06.515Z,43.93
2018-07-31T22:02:35.887Z,43.85
2018-07-31T22:05:05.309Z,44.17
2018-07-31T22:07:35.040Z,43.12
2018-07-31T22:10:04.676Z,43.27
2018-07-31T22:12:34.827Z,43.08
2018-07-31T22:15:05.555Z,44.54
2018-07-31T22:17:36.803Z,44.33
2018-07-31T22:20:06.787Z,44.33
2018-07-31T22:22:37.051Z,44.44
2018-07-31T22:25:06.683Z,44.30
2018-07-31T22:27:37.365Z,44.33
2018-07-31T22:30:07.164Z,44.29
2018-07-31T22:32:36.480Z,44.27
2018-07-31T22:35:06.222Z,44.11
2018-07-31T22:37:35.769Z,44.48
2018-07-31T22:40:05.487Z,45.11
2018-07-31T22:42:35.326Z,44.44
2018-07-31T22:45:04.694Z,44.73
2018-07-31T22:47:34.053Z,45.27
2018-07-31T22:50:03.455Z,45.14
2018-07-31T22:52:33.067Z,45.00
2018-07-31T22:55:02.748Z,45.11
2018-07-31T22:57:32.761Z,44.97
2018-07-31T23:00:02.131Z,45.02
2018-07-31T23:02:31.876Z,44.95
2018-07-31T23:05:01.300Z,44.64
2018-07-31T23:07:31.118Z,44.92
2018-07-31T23:10:04.617Z,44.70
2018-07-31T23:12:35.080Z,45.25
2018-07-31T23:15:05.530Z,45.54
2018-07-31T23:17:35.710Z,46.54
2018-07-31T23:20:05.727Z,46.41
2018-07-31T23:22:44.215Z,47.13
2018-07-31T23:25:14.100Z,47.47
2018-07-31T23:27:43.619Z,47.56
2018-07-31T23:30:13.685Z,47.77
2018-07-31T23:32:43.122Z,48.07
2018-07-31T23:35:12.833Z,48.67
2018-07-31T23:37:42.200Z,48.96
2018-07-31T23:40:11.507Z,49.36
2018-07-31T23:42:41.035Z,49.67
2018-07-31T23:45:10.787Z,50.07
2018-07-31T23:47:40.100Z,50.29
2018-07-31T23:50:10.253Z,49.92
2018-07-31T23:52:39.537Z,49.86
2018-07-31T23:55:08.904Z,49.90
2018-07-31T23:57:38.217Z,49.97
